createdAt,value
2017-12-17T00:00:24.464Z,9.30
2017-12-17T00:02:54.047Z,9.30
2017-12-17T00:05:24.054Z,9.20
2017-12-17T00:07:52.639Z,9.20
2017-12-17T00:10:21.233Z,9.20
2017-12-17T00:12:51.654Z,9.10
2017-12-17T00:15:20.855Z,9.10
2017-12-17T00:17:49.527Z,9.20
2017-12-17T00:20:26.464Z,9.30
2017-12-17T00:22:55.098Z,9.30
2017-12-17T00:25:23.880Z,9.30
2017-12-17T00:27:53.098Z,9.10
2017-12-17T00:30:21.614Z,9.10
2017-12-17T00:32:50.959Z,9.10
2017-12-17T00:35:19.446Z,9.10
2017-12-17T00:37:48.021Z,9.10
2017-12-17T00:40:29.516Z,9.20
2017-12-17T00:42:57.987Z,9.20
2017-12-17T00:45:26.474Z,9.20
2017-12-17T00:47:54.874Z,9.20
2017-12-17T00:50:23.328Z,9.40
2017-12-17T00:52:51.823Z,9.40
2017-12-17T00:55:20.955Z,9.40
2017-12-17T00:57:49.594Z,9.40
2017-12-17T01:00:21.654Z,9.40
2017-12-17T01:02:51.472Z,9.40
2017-12-17T01:05:19.962Z,9.40
2017-12-17T01:07:48.407Z,9.50
2017-12-17T01:10:16.910Z,9.60
2017-12-17T01:12:45.495Z,9.70
2017-12-17T01:15:20.214Z,9.60
2017-12-17T01:17:49.831Z,9.50
2017-12-17T01:20:18.335Z,9.40
2017-12-17T01:22:53.486Z,9.50
2017-12-17T01:25:28.182Z,9.50
2017-12-17T01:27:56.757Z,9.40
2017-12-17T01:30:25.472Z,9.40
2017-12-17T01:32:53.925Z,9.30
2017-12-17T01:35:29.943Z,9.30
2017-12-17T01:38:12.241Z,9.40
2017-12-17T01:40:41.690Z,9.60
2017-12-17T01:43:10.372Z,9.60
2017-12-17T01:45:38.924Z,9.80
2017-12-17T01:48:11.996Z,10.00
2017-12-17T01:50:41.892Z,9.90
2017-12-17T01:53:10.445Z,9.90
2017-12-17T01:55:39.232Z,10.00
2017-12-17T01:58:10.777Z,10.00
2017-12-17T02:00:39.205Z,9.90
2017-12-17T02:03:15.343Z,9.90
2017-12-17T02:05:43.904Z,10.00
2017-12-17T02:08:12.396Z,10.10
2017-12-17T02:10:40.967Z,10.30
2017-12-17T02:13:09.753Z,10.40
2017-12-17T02:15:44.345Z,10.50
2017-12-17T02:18:15.663Z,10.40
2017-12-17T02:20:45.750Z,10.40
2017-12-17T02:23:14.246Z,10.40
2017-12-17T02:25:42.809Z,10.40
2017-12-17T02:28:17.339Z,10.40
2017-12-17T02:30:49.887Z,10.50
2017-12-17T02:33:18.504Z,10.50
2017-12-17T02:35:54.994Z,10.50
2017-12-17T02:38:23.539Z,10.50
2017-12-17T02:40:53.149Z,10.50
2017-12-17T02:43:28.900Z,10.40
2017-12-17T02:46:03.047Z,10.40
2017-12-17T02:48:31.832Z,10.50
2017-12-17T02:51:00.951Z,10.30
2017-12-17T02:53:30.446Z,10.20
2017-12-17T02:55:59.087Z,10.20
2017-12-17T02:58:35.260Z,10.10
2017-12-17T03:01:03.751Z,10.00
2017-12-17T03:03:32.270Z,9.90
2017-12-17T03:06:04.588Z,9.80
2017-12-17T03:08:33.138Z,9.80
2017-12-17T03:11:02.421Z,9.80
2017-12-17T03:13:31.668Z,9.90
2017-12-17T03:16:13.562Z,10.00
2017-12-17T03:18:42.253Z,10.00
2017-12-17T03:21:10.825Z,9.90
2017-12-17T03:23:39.433Z,9.90
2017-12-17T03:26:14.557Z,9.90
2017-12-17T03:28:43.145Z,9.80
2017-12-17T03:31:11.713Z,9.80
2017-12-17T03:33:40.293Z,9.70
2017-12-17T03:36:10.110Z,9.60
2017-12-17T03:38:40.492Z,9.60
2017-12-17T03:41:09.727Z,9.60
2017-12-17T03:43:38.288Z,9.60
2017-12-17T03:46:07.681Z,9.60
2017-12-17T03:48:37.016Z,9.70
2017-12-17T03:51:05.435Z,9.60
2017-12-17T03:53:33.977Z,9.60
2017-12-17T03:56:04.091Z,9.50
2017-12-17T03:58:32.628Z,9.50
2017-12-17T04:01:01.223Z,9.60
2017-12-17T04:03:30.567Z,9.40
2017-12-17T04:06:14.703Z,9.30
2017-12-17T04:08:50.102Z,9.20
2017-12-17T04:11:19.301Z,9.10
2017-12-17T04:13:49.370Z,8.80
2017-12-17T04:16:21.706Z,8.80
2017-12-17T04:18:50.220Z,8.70
2017-12-17T04:21:18.711Z,8.70
2017-12-17T04:23:47.285Z,8.60
2017-12-17T04:26:15.816Z,8.50
2017-12-17T04:28:45.940Z,8.50
2017-12-17T04:31:14.648Z,8.40
2017-12-17T04:33:43.974Z,8.60
2017-12-17T04:36:12.454Z,8.50
2017-12-17T04:38:47.084Z,8.40
2017-12-17T04:41:15.662Z,8.40
2017-12-17T04:43:44.159Z,8.50
2017-12-17T04:46:20.927Z,8.70
2017-12-17T04:48:49.354Z,8.90
2017-12-17T04:51:24.025Z,8.80
2017-12-17T04:53:52.612Z,8.60
2017-12-17T04:56:21.435Z,8.40
2017-12-17T04:58:51.193Z,8.30
2017-12-17T05:01:19.796Z,8.20
2017-12-17T05:03:48.274Z,8.00
2017-12-17T05:06:18.194Z,8.00
2017-12-17T05:08:46.775Z,8.00
2017-12-17T05:11:15.286Z,7.70
2017-12-17T05:13:43.937Z,7.40
2017-12-17T05:16:27.278Z,7.20
2017-12-17T05:18:55.741Z,7.00
2017-12-17T05:21:24.432Z,6.80
2017-12-17T05:23:53.836Z,6.60
2017-12-17T05:26:22.263Z,6.50
2017-12-17T05:28:50.793Z,6.40
2017-12-17T05:31:19.429Z,6.30
2017-12-17T05:33:47.929Z,6.30
2017-12-17T05:36:17.262Z,6.10
2017-12-17T05:38:45.643Z,6.10
2017-12-17T05:41:14.326Z,6.20
2017-12-17T05:43:42.734Z,6.10
2017-12-17T05:46:11.688Z,6.00
2017-12-17T05:48:40.385Z,6.60
2017-12-17T05:51:15.931Z,6.90
2017-12-17T05:53:44.406Z,7.20
2017-12-17T05:56:13.193Z,7.30
2017-12-17T05:58:41.675Z,7.50
2017-12-17T06:01:10.853Z,7.30
2017-12-17T06:03:40.070Z,7.10
2017-12-17T06:06:08.656Z,7.10
2017-12-17T06:08:37.142Z,6.90
2017-12-17T06:11:05.722Z,6.90
2017-12-17T06:13:34.169Z,6.70
2017-12-17T06:16:03.415Z,7.20
2017-12-17T06:18:31.905Z,7.20
2017-12-17T06:21:00.367Z,7.40
2017-12-17T06:23:28.943Z,7.30
2017-12-17T06:25:57.628Z,7.20
2017-12-17T06:28:27.992Z,7.10
2017-12-17T06:30:57.027Z,7.20
2017-12-17T06:33:26.077Z,7.20
2017-12-17T06:36:00.997Z,7.10
2017-12-17T06:38:29.663Z,7.00
2017-12-17T06:40:58.250Z,7.00
2017-12-17T06:43:26.828Z,6.90
2017-12-17T06:45:55.513Z,6.90
2017-12-17T06:48:25.427Z,6.80
2017-12-17T06:50:56.159Z,6.60
2017-12-17T06:53:28.735Z,6.60
2017-12-17T06:55:57.684Z,6.60
2017-12-17T06:58:26.954Z,6.50
2017-12-17T07:00:55.558Z,6.50
2017-12-17T07:03:25.578Z,6.70
2017-12-17T07:05:54.070Z,6.70
2017-12-17T07:08:23.407Z,7.10
2017-12-17T07:10:52.071Z,7.10
2017-12-17T07:13:23.679Z,7.30
2017-12-17T07:15:52.886Z,7.30
2017-12-17T07:18:35.111Z,7.20
2017-12-17T07:21:18.426Z,7.30
2017-12-17T07:23:47.781Z,7.40
2017-12-17T07:26:16.312Z,7.40
2017-12-17T07:28:45.667Z,7.60
2017-12-17T07:31:14.248Z,7.60
2017-12-17T07:33:42.828Z,7.90
2017-12-17T07:36:13.259Z,8.20
2017-12-17T07:38:43.121Z,8.60
2017-12-17T07:41:11.998Z,8.90
2017-12-17T07:43:42.181Z,9.80
2017-12-17T07:46:19.579Z,9.90
2017-12-17T07:48:54.708Z,9.90
2017-12-17T07:51:23.525Z,10.50
2017-12-17T07:54:07.050Z,11.00
2017-12-17T07:56:37.008Z,11.30
2017-12-17T07:59:06.243Z,11.50
2017-12-17T08:01:34.832Z,11.50
2017-12-17T08:04:03.414Z,12.10
2017-12-17T08:06:32.720Z,12.70
2017-12-17T08:09:02.031Z,12.90
2017-12-17T08:11:30.800Z,12.90
2017-12-17T08:13:59.378Z,12.90
2017-12-17T08:16:28.559Z,13.20
2017-12-17T08:18:57.262Z,13.40
2017-12-17T08:21:32.603Z,13.90
2017-12-17T08:24:01.186Z,14.00
2017-12-17T08:26:29.711Z,14.60
2017-12-17T08:28:58.256Z,15.20
2017-12-17T08:31:26.831Z,15.50
2017-12-17T08:33:56.753Z,15.00
2017-12-17T08:36:46.273Z,14.70
2017-12-17T08:39:15.233Z,14.10
2017-12-17T08:41:48.099Z,14.60
2017-12-17T08:44:25.971Z,14.80
2017-12-17T08:46:54.693Z,15.10
2017-12-17T08:49:23.169Z,15.80
2017-12-17T08:51:51.582Z,15.70
2017-12-17T08:54:21.666Z,15.80
2017-12-17T08:56:50.252Z,16.20
2017-12-17T08:59:18.946Z,16.30
2017-12-17T09:01:47.328Z,16.40
2017-12-17T09:04:15.892Z,16.40
2017-12-17T09:06:47.759Z,16.50
2017-12-17T09:09:16.514Z,16.40
2017-12-17T09:11:49.881Z,15.60
2017-12-17T09:14:18.622Z,14.70
2017-12-17T09:16:47.930Z,13.90
2017-12-17T09:19:16.358Z,14.70
2017-12-17T09:21:44.987Z,15.40
2017-12-17T09:24:14.085Z,16.80
2017-12-17T09:26:50.657Z,16.00
2017-12-17T09:29:23.399Z,17.20
2017-12-17T09:31:52.641Z,17.50
2017-12-17T09:34:21.221Z,17.50
2017-12-17T09:36:49.736Z,18.50
2017-12-17T09:39:18.225Z,18.90
2017-12-17T09:42:00.285Z,19.80
2017-12-17T09:44:37.022Z,20.10
2017-12-17T09:47:05.636Z,20.60
2017-12-17T09:49:34.090Z,20.70
2017-12-17T09:52:03.468Z,20.50
2017-12-17T09:54:32.115Z,20.50
2017-12-17T09:57:02.684Z,20.20
2017-12-17T09:59:34.298Z,21.40
2017-12-17T10:02:03.905Z,21.40
2017-12-17T10:04:33.827Z,21.70
2017-12-17T10:07:03.545Z,21.90
2017-12-17T10:09:32.411Z,22.10
2017-12-17T10:12:02.508Z,21.90
2017-12-17T10:14:32.083Z,21.10
2017-12-17T10:17:01.660Z,20.70
2017-12-17T10:19:31.186Z,19.70
2017-12-17T10:22:01.520Z,19.80
2017-12-17T10:24:30.244Z,19.70
2017-12-17T10:26:58.705Z,20.10
2017-12-17T10:29:28.000Z,21.10
2017-12-17T10:32:03.432Z,21.80
2017-12-17T10:34:33.567Z,22.20
2017-12-17T10:37:03.003Z,22.50
2017-12-17T10:39:31.495Z,22.50
2017-12-17T10:42:00.177Z,22.80
2017-12-17T10:44:29.633Z,23.30
2017-12-17T10:46:58.987Z,23.80
2017-12-17T10:49:27.445Z,23.80
2017-12-17T10:51:55.946Z,24.20
2017-12-17T10:54:27.560Z,24.40
2017-12-17T10:56:56.929Z,24.90
2017-12-17T10:59:26.300Z,24.60
2017-12-17T11:01:54.903Z,24.60
2017-12-17T11:04:23.466Z,25.20
2017-12-17T11:06:52.723Z,24.60
2017-12-17T11:09:22.063Z,22.50
2017-12-17T11:11:50.851Z,22.40
2017-12-17T11:14:19.476Z,21.10
2017-12-17T11:16:48.052Z,21.40
2017-12-17T11:19:16.487Z,19.90
2017-12-17T11:21:58.187Z,19.80
2017-12-17T11:24:32.694Z,20.00
2017-12-17T11:27:01.396Z,19.80
2017-12-17T11:29:30.538Z,19.50
2017-12-17T11:32:01.683Z,19.10
2017-12-17T11:34:33.070Z,18.40
2017-12-17T11:37:01.730Z,18.40
2017-12-17T11:39:37.160Z,18.00
2017-12-17T11:42:05.734Z,17.90
2017-12-17T11:44:34.241Z,17.90
2017-12-17T11:47:03.552Z,18.10
2017-12-17T11:49:33.675Z,18.00
2017-12-17T11:52:02.284Z,18.00
2017-12-17T11:54:30.784Z,19.10
2017-12-17T11:56:59.350Z,18.80
2017-12-17T11:59:27.928Z,18.40
2017-12-17T12:01:56.606Z,18.70
2017-12-17T12:04:26.525Z,19.10
2017-12-17T12:06:55.142Z,19.10
2017-12-17T12:09:25.168Z,18.70
2017-12-17T12:11:54.435Z,18.50
2017-12-17T12:14:24.271Z,18.40
2017-12-17T12:16:52.924Z,18.90
2017-12-17T12:19:21.554Z,19.20
2017-12-17T12:21:51.837Z,18.30
2017-12-17T12:24:22.165Z,18.60
2017-12-17T12:26:50.938Z,18.60
2017-12-17T12:29:32.618Z,18.60
2017-12-17T12:32:01.193Z,18.20
2017-12-17T12:34:29.846Z,18.90
2017-12-17T12:37:06.190Z,18.50
2017-12-17T12:39:35.146Z,18.40
2017-12-17T12:42:03.859Z,19.20
2017-12-17T12:44:44.729Z,19.10
2017-12-17T12:47:20.715Z,18.90
2017-12-17T12:49:50.960Z,19.30
2017-12-17T12:52:19.690Z,19.30
2017-12-17T12:54:48.575Z,19.50
2017-12-17T12:57:25.873Z,19.30
2017-12-17T12:59:55.051Z,19.30
2017-12-17T13:02:24.517Z,19.20
2017-12-17T13:04:54.406Z,18.70
2017-12-17T13:07:23.121Z,18.70
2017-12-17T13:09:52.634Z,18.70
2017-12-17T13:12:22.050Z,18.50
2017-12-17T13:14:50.634Z,18.50
2017-12-17T13:17:19.501Z,19.50
2017-12-17T13:19:58.174Z,20.50
2017-12-17T13:22:26.869Z,20.50
2017-12-17T13:24:55.652Z,21.50
2017-12-17T13:27:24.294Z,22.10
2017-12-17T13:29:53.256Z,20.90
2017-12-17T13:32:24.059Z,21.60
2017-12-17T13:34:59.822Z,21.70
2017-12-17T13:37:28.460Z,21.70
2017-12-17T13:39:57.186Z,21.10
2017-12-17T13:42:25.838Z,20.80
2017-12-17T13:44:54.756Z,20.90
2017-12-17T13:47:24.157Z,20.70
2017-12-17T13:49:57.903Z,20.60
2017-12-17T13:52:27.234Z,21.40
2017-12-17T13:55:02.781Z,21.40
2017-12-17T13:57:32.523Z,21.10
2017-12-17T14:00:04.586Z,20.80
2017-12-17T14:02:33.271Z,20.70
2017-12-17T14:05:01.834Z,19.10
2017-12-17T14:07:30.645Z,19.90
2017-12-17T14:09:59.428Z,20.20
2017-12-17T14:12:28.319Z,20.90
2017-12-17T14:14:57.473Z,21.10
2017-12-17T14:17:26.600Z,20.10
2017-12-17T14:20:02.494Z,20.40
2017-12-17T14:22:32.396Z,20.50
2017-12-17T14:25:02.839Z,19.60
2017-12-17T14:27:39.194Z,19.90
2017-12-17T14:30:08.762Z,20.50
2017-12-17T14:32:41.536Z,21.50
2017-12-17T14:35:11.380Z,22.30
2017-12-17T14:37:41.805Z,22.00
2017-12-17T14:40:12.976Z,22.00
2017-12-17T14:42:42.863Z,21.70
2017-12-17T14:45:11.544Z,21.50
2017-12-17T14:47:40.066Z,22.30
2017-12-17T14:50:08.702Z,22.50
2017-12-17T14:52:37.389Z,22.10
2017-12-17T14:55:06.788Z,21.00
2017-12-17T14:57:41.348Z,20.70
2017-12-17T15:00:10.040Z,19.90
2017-12-17T15:02:40.276Z,20.40
2017-12-17T15:05:12.878Z,21.00
2017-12-17T15:07:42.208Z,21.20
2017-12-17T15:10:10.791Z,21.20
2017-12-17T15:12:40.113Z,20.10
2017-12-17T15:15:08.605Z,19.20
2017-12-17T15:17:38.633Z,19.40
2017-12-17T15:20:13.227Z,19.40
2017-12-17T15:22:41.696Z,20.10
2017-12-17T15:25:10.410Z,20.30
2017-12-17T15:27:39.797Z,20.00
2017-12-17T15:30:08.463Z,19.90
2017-12-17T15:32:37.588Z,19.80
2017-12-17T15:35:08.410Z,19.60
2017-12-17T15:37:36.947Z,19.50
2017-12-17T15:40:06.276Z,19.30
2017-12-17T15:42:35.494Z,19.10
2017-12-17T15:45:05.694Z,18.50
2017-12-17T15:47:34.801Z,18.50
2017-12-17T15:50:03.479Z,18.20
2017-12-17T15:52:32.166Z,17.50
2017-12-17T15:55:01.777Z,16.20
2017-12-17T15:57:30.783Z,16.10
2017-12-17T16:00:00.653Z,15.60
2017-12-17T16:02:29.523Z,14.90
2017-12-17T16:05:09.413Z,14.00
2017-12-17T16:07:39.658Z,13.90
2017-12-17T16:10:08.266Z,13.70
2017-12-17T16:12:38.341Z,13.20
2017-12-17T16:15:06.846Z,13.20
2017-12-17T16:17:35.195Z,13.00
2017-12-17T16:20:03.766Z,12.90
2017-12-17T16:22:32.460Z,12.70
2017-12-17T16:25:08.526Z,12.70
2017-12-17T16:27:37.456Z,12.50
2017-12-17T16:30:06.107Z,12.40
2017-12-17T16:32:34.601Z,12.10
2017-12-17T16:35:03.164Z,11.90
2017-12-17T16:37:31.532Z,11.70
2017-12-17T16:40:00.068Z,11.50
2017-12-17T16:42:30.175Z,11.30
2017-12-17T16:44:58.634Z,11.00
2017-12-17T16:47:28.432Z,10.70
2017-12-17T16:49:58.251Z,10.50
2017-12-17T16:52:26.898Z,10.30
2017-12-17T16:54:55.421Z,10.10
2017-12-17T16:57:24.509Z,9.90
2017-12-17T16:59:53.095Z,9.80
2017-12-17T17:02:27.715Z,9.70
2017-12-17T17:04:56.885Z,9.60
2017-12-17T17:07:26.159Z,9.20
2017-12-17T17:10:00.840Z,9.20
2017-12-17T17:12:40.442Z,9.10
2017-12-17T17:15:18.216Z,8.90
2017-12-17T17:17:47.183Z,8.90
2017-12-17T17:20:15.756Z,8.70
2017-12-17T17:22:52.350Z,8.70
2017-12-17T17:25:22.260Z,8.70
2017-12-17T17:27:59.900Z,8.70
2017-12-17T17:30:29.413Z,8.70
2017-12-17T17:33:04.594Z,8.70
2017-12-17T17:35:41.076Z,8.70
2017-12-17T17:38:09.632Z,8.80
2017-12-17T17:40:38.227Z,8.80
2017-12-17T17:43:06.959Z,8.80
2017-12-17T17:45:35.937Z,8.80
2017-12-17T17:48:10.701Z,8.90
2017-12-17T17:50:46.270Z,8.90
2017-12-17T17:53:16.616Z,9.00
2017-12-17T17:55:49.677Z,9.00
2017-12-17T17:58:19.546Z,8.90
2017-12-17T18:00:49.425Z,8.90
2017-12-17T18:03:26.138Z,8.90
2017-12-17T18:05:56.475Z,8.90
2017-12-17T18:08:25.920Z,8.80
2017-12-17T18:10:54.390Z,8.80
2017-12-17T18:13:22.922Z,8.80
2017-12-17T18:15:52.126Z,8.70
2017-12-17T18:18:21.577Z,8.70
2017-12-17T18:20:50.161Z,8.90
2017-12-17T18:23:18.637Z,8.70
2017-12-17T18:25:47.118Z,8.70
2017-12-17T18:28:22.180Z,8.50
2017-12-17T18:30:50.691Z,8.40
2017-12-17T18:33:19.923Z,8.30
2017-12-17T18:35:48.415Z,8.30
2017-12-17T18:38:16.898Z,8.20
2017-12-17T18:40:46.617Z,8.00
2017-12-17T18:43:28.609Z,7.90
2017-12-17T18:45:57.339Z,7.80
2017-12-17T18:48:26.643Z,7.70
2017-12-17T18:50:55.632Z,7.60
2017-12-17T18:53:26.568Z,7.60
2017-12-17T18:55:55.274Z,7.70
2017-12-17T18:58:24.492Z,7.70
2017-12-17T19:00:53.024Z,7.70
2017-12-17T19:03:30.281Z,7.50
2017-12-17T19:05:58.707Z,7.50
2017-12-17T19:08:37.380Z,7.50
2017-12-17T19:11:05.891Z,7.50
2017-12-17T19:13:34.382Z,7.40
2017-12-17T19:16:07.034Z,7.30
2017-12-17T19:18:35.765Z,7.30
2017-12-17T19:21:05.057Z,7.10
2017-12-17T19:23:34.261Z,7.20
2017-12-17T19:26:03.920Z,7.30
2017-12-17T19:28:33.930Z,7.50
2017-12-17T19:31:04.154Z,7.50
2017-12-17T19:33:32.830Z,7.50
2017-12-17T19:36:02.235Z,7.60
2017-12-17T19:38:39.073Z,7.50
2017-12-17T19:41:08.217Z,7.50
2017-12-17T19:43:37.151Z,7.50
2017-12-17T19:46:06.290Z,7.70
2017-12-17T19:48:35.620Z,7.80
2017-12-17T19:51:05.375Z,7.80
2017-12-17T19:53:34.543Z,7.70
2017-12-17T19:56:04.189Z,7.70
2017-12-17T19:58:33.192Z,7.60
2017-12-17T20:01:03.257Z,7.60
2017-12-17T20:03:31.814Z,7.50
2017-12-17T20:06:01.625Z,7.50
2017-12-17T20:08:31.474Z,7.60
2017-12-17T20:11:02.179Z,8.00
2017-12-17T20:13:31.141Z,8.00
2017-12-17T20:15:59.842Z,7.90
2017-12-17T20:18:30.166Z,7.80
2017-12-17T20:21:01.371Z,7.70
2017-12-17T20:23:30.055Z,7.70
2017-12-17T20:26:00.799Z,7.70
2017-12-17T20:28:30.221Z,7.80
2017-12-17T20:30:59.306Z,7.80
2017-12-17T20:33:27.819Z,7.70
2017-12-17T20:35:56.472Z,7.60
2017-12-17T20:38:24.886Z,7.60
2017-12-17T20:40:53.317Z,7.60
2017-12-17T20:43:22.625Z,7.70
2017-12-17T20:46:02.194Z,7.60
2017-12-17T20:48:30.731Z,7.70
2017-12-17T20:51:00.579Z,7.50
2017-12-17T20:53:29.398Z,7.50
2017-12-17T20:56:04.458Z,7.40
2017-12-17T21:01:09.909Z,7.40
2017-12-17T21:03:39.396Z,7.40
2017-12-17T21:06:09.566Z,7.40
2017-12-17T21:08:37.998Z,7.40
2017-12-17T21:11:11.024Z,7.30
2017-12-17T21:13:40.028Z,7.30
2017-12-17T21:16:09.885Z,7.30
2017-12-17T21:18:46.558Z,7.30
2017-12-17T21:21:16.267Z,7.40
2017-12-17T21:23:45.859Z,7.60
2017-12-17T21:26:22.424Z,7.60
2017-12-17T21:28:51.599Z,7.70
2017-12-17T21:31:20.526Z,7.60
2017-12-17T21:33:49.517Z,7.60
2017-12-17T21:36:18.369Z,7.50
2017-12-17T21:38:55.013Z,7.50
2017-12-17T21:41:24.272Z,7.50
2017-12-17T21:43:52.752Z,7.50
2017-12-17T21:46:22.049Z,7.20
2017-12-17T21:48:50.667Z,7.20
2017-12-17T21:51:20.798Z,7.30
2017-12-17T21:53:49.376Z,7.20
2017-12-17T21:56:18.028Z,7.30
2017-12-17T21:58:47.409Z,7.20
2017-12-17T22:01:29.320Z,7.20
2017-12-17T22:03:57.911Z,7.30
2017-12-17T22:06:26.289Z,7.40
2017-12-17T22:08:54.988Z,7.60
2017-12-17T22:11:23.291Z,7.80
2017-12-17T22:13:52.860Z,7.80
2017-12-17T22:16:27.927Z,8.00
2017-12-17T22:18:57.594Z,8.00
2017-12-17T22:21:26.175Z,8.00
2017-12-17T22:23:54.696Z,8.10
2017-12-17T22:26:24.018Z,8.20
2017-12-17T22:28:53.458Z,8.50
2017-12-17T22:31:21.997Z,8.50
2017-12-17T22:33:51.235Z,8.80
2017-12-17T22:36:20.382Z,8.80
2017-12-17T22:38:51.584Z,9.10
2017-12-17T22:41:20.463Z,9.10
2017-12-17T22:43:51.149Z,9.30
2017-12-17T22:46:21.632Z,9.40
2017-12-17T22:48:50.217Z,9.40
2017-12-17T22:51:19.843Z,9.40
2017-12-17T22:53:49.021Z,9.40
2017-12-17T22:56:18.119Z,9.60
2017-12-17T22:58:47.033Z,9.50
2017-12-17T23:01:17.073Z,9.70
2017-12-17T23:03:45.613Z,9.70
2017-12-17T23:06:16.038Z,9.70
2017-12-17T23:08:46.167Z,9.80
2017-12-17T23:11:14.731Z,10.20
2017-12-17T23:13:43.326Z,10.40
2017-12-17T23:16:11.903Z,10.40
2017-12-17T23:18:40.654Z,10.30
2017-12-17T23:21:11.217Z,10.40
2017-12-17T23:23:40.003Z,10.40
2017-12-17T23:26:10.194Z,10.40
2017-12-17T23:28:40.145Z,10.40
2017-12-17T23:31:08.601Z,10.40
2017-12-17T23:33:38.707Z,10.30
2017-12-17T23:36:07.883Z,10.40
2017-12-17T23:38:37.880Z,10.30
2017-12-17T23:41:06.386Z,10.30
2017-12-17T23:43:34.832Z,10.30
2017-12-17T23:46:03.347Z,10.30
2017-12-17T23:48:31.877Z,10.30
2017-12-17T23:51:00.305Z,10.30
2017-12-17T23:53:29.610Z,10.30
2017-12-17T23:55:58.854Z,10.40
2017-12-17T23:58:27.439Z,10.40
